PDT,Max TemperatureF,Mean TemperatureF,Min TemperatureF,Max Dew PointF,MeanDew PointF,Min DewpointF,Max Humidity, Mean Humidity, Min Humidity, Max Sea Level PressureIn, Mean Sea Level PressureIn, Min Sea Level PressureIn, Max VisibilityMiles, Mean VisibilityMiles, Min VisibilityMiles, Max Wind SpeedMPH, Mean Wind SpeedMPH, Max Gust SpeedMPH,PrecipitationIn, CloudCover, Events, WindDirDegrees
2013-9-1,89,72,55,55,48,43,68,47,21,29.96,29.89,29.80,10,10,10,22,11,25,0.00,0,,66
2013-9-2,69,64,60,63,56,48,88,74,52,29.97,29.92,29.83,10,10,8,13,6,,0.05,4,,57
2013-9-3,82,71,60,63,58,55,88,70,45,30.03,30.00,29.96,10,10,10,13,7,,0.00,2,,65
2013-9-4,89,74,60,63,58,54,83,65,31,30.05,30.01,29.96,10,10,5,25,8,30,0.01,1,Thunderstorm,59
2013-9-5,77,68,60,64,62,55,94,80,65,30.08,29.99,29.89,10,10,2,17,11,43,0.51,3,Thunderstorm,34
2013-9-6,64,60,57,59,54,52,94,80,64,30.14,30.09,29.94,10,10,8,15,6,,0.04,6,Thunderstorm,187
2013-9-7,71,62,53,55,53,48,94,74,46,30.15,30.11,30.05,10,10,10,9,3,,0.01,6,,2
2013-9-8,69,61,53,54,52,50,100,78,49,30.09,30.05,30.00,10,7,0,14,4,18,0.01,6,,248
2013-9-9,80,68,55,55,53,48,88,63,37,30.05,30.01,29.97,10,10,7,9,5,,0.00,1,,177
2013-9-10,86,70,53,59,52,48,88,62,27,30.08,30.03,29.99,10,10,10,10,6,,0.00,0,,52
2013-9-11,89,76,62,57,53,52,73,51,27,30.12,30.07,30.02,10,10,10,21,14,26,0.00,0,,28
2013-9-12,91,76,60,55,52,46,72,47,24,30.06,29.99,29.90,10,10,9,20,11,24,0.00,0,,29
2013-9-13,89,72,55,59,53,25,82,57,24,29.91,29.85,29.77,10,10,10,10,4,,0.00,0,,128
2013-9-14,89,74,60,55,51,45,77,49,22,29.95,29.90,29.84,10,10,10,21,9,21,0.00,0,,44
2013-9-15,89,74,60,57,49,45,82,44,24,29.90,29.81,29.68,10,9,0,24,10,39,0.07,1,Thunderstorm,43
2013-9-16,69,63,57,57,53,46,88,73,53,29.94,29.86,29.80,10,9,5,13,6,16,0.01,6,,201
2013-9-17,69,58,48,52,49,37,94,73,43,29.87,29.77,29.67,10,10,8,18,6,25,0.19,4,,250
2013-9-18,64,56,48,48,46,41,88,75,45,30.10,29.93,29.77,10,10,8,18,8,24,0.02,7,,231
2013-9-19,69,54,39,48,42,37,93,68,33,30.18,30.09,29.98,10,10,2,13,5,,0.01,0,,47
2013-9-20,75,60,44,48,44,39,87,61,36,29.97,29.78,29.57,10,10,10,16,11,21,0.00,0,,43
2013-9-21,64,56,48,48,44,39,88,62,49,29.73,29.69,29.58,10,10,10,18,7,16,0.00,2,,176
2013-9-22,60,50,41,46,43,36,93,72,45,29.75,29.72,29.68,10,10,10,20,7,28,0.05,7,,199
2013-9-23,59,52,46,46,43,39,93,70,54,29.95,29.90,29.75,10,10,10,16,9,26,0.05,8,,213
2013-9-24,59,54,48,48,44,39,94,76,48,29.93,29.84,29.77,10,10,3,15,5,18,0.12,7,,240
2013-9-25,53,48,42,45,42,39,93,82,58,29.89,29.82,29.78,10,10,7,17,5,21,0.08,7,,31
2013-9-26,60,48,37,41,36,28,87,64,31,30.04,29.98,29.90,10,10,10,15,9,18,0.05,3,,45
2013-9-27,53,46,39,43,38,36,87,71,51,30.04,30.00,29.94,10,10,3,21,8,26,0.04,7,,198
2013-9-28,55,50,46,50,47,43,94,87,72,29.94,29.74,29.49,10,10,8,21,10,29,0.43,8,,171
2013-9-29,53,50,46,48,42,39,87,77,62,29.70,29.63,29.48,10,10,6,23,14,40,0.38,8,,192
2013-9-30,57,50,42,46,39,28,87,66,41,29.91,29.70,29.43,10,10,10,31,15,41,0.06,7,,224